createdAt,value
2019-05-23T00:09:44.269Z,11.47
2019-05-23T00:19:50.584Z,11.44
2019-05-23T00:29:57.324Z,11.42
2019-05-23T00:40:03.626Z,11.38
2019-05-23T00:50:11.947Z,11.36
2019-05-23T01:00:20.818Z,11.32
2019-05-23T01:10:26.966Z,11.28
2019-05-23T01:20:35.599Z,11.26
2019-05-23T01:30:50.821Z,11.23
2019-05-23T01:40:56.196Z,11.21
2019-05-23T01:51:01.167Z,11.15
2019-05-23T02:01:05.857Z,11.11
2019-05-23T02:11:10.861Z,11.07
2019-05-23T02:21:18.393Z,11.02
2019-05-23T02:31:23.416Z,11.00
2019-05-23T02:41:30.935Z,11.00
2019-05-23T02:51:38.781Z,10.96
2019-05-23T03:01:56.930Z,10.94
2019-05-23T03:12:03.289Z,10.91
2019-05-23T03:22:46.200Z,10.91
2019-05-23T03:32:52.446Z,10.87
2019-05-23T03:42:59.295Z,10.87
2019-05-23T03:53:08.317Z,10.86
2019-05-23T04:03:13.018Z,10.90
2019-05-23T04:13:17.598Z,10.81
2019-05-23T04:23:22.046Z,10.74
2019-05-23T04:33:26.842Z,10.70
2019-05-23T04:43:31.479Z,10.70
2019-05-23T04:53:36.190Z,10.67
2019-05-23T05:03:42.215Z,10.71
2019-05-23T05:13:47.263Z,10.71
2019-05-23T05:23:51.815Z,10.80
2019-05-23T05:33:56.666Z,10.92
2019-05-23T05:44:01.590Z,10.97
2019-05-23T05:54:08.159Z,11.11
2019-05-23T06:04:14.236Z,11.26
2019-05-23T06:14:19.468Z,11.23
2019-05-23T06:24:41.656Z,11.21
2019-05-23T06:34:32.220Z,11.31
2019-05-23T06:44:37.457Z,11.37
2019-05-23T06:54:41.888Z,11.37
2019-05-23T07:04:46.812Z,11.45
2019-05-23T07:14:51.534Z,11.30
2019-05-23T07:24:58.771Z,11.11
2019-05-23T07:35:02.764Z,11.15
2019-05-23T07:45:09.668Z,11.24
2019-05-23T07:55:19.359Z,11.15
2019-05-23T08:05:25.526Z,11.00
2019-05-23T08:15:30.617Z,10.94
2019-05-23T08:25:35.144Z,10.98
2019-05-23T08:35:39.798Z,10.96
2019-05-23T08:45:44.570Z,10.88
2019-05-23T08:55:49.960Z,10.86
2019-05-23T09:05:54.561Z,10.87
2019-05-23T09:15:59.073Z,10.94
2019-05-23T09:26:05.318Z,11.08
2019-05-23T09:36:10.509Z,11.25
2019-05-23T09:46:16.105Z,11.40
2019-05-23T09:56:20.832Z,11.46
2019-05-23T10:06:25.516Z,11.57
2019-05-23T10:16:30.667Z,11.53
2019-05-23T10:26:35.252Z,11.48
2019-05-23T10:36:39.937Z,11.68
2019-05-23T10:46:44.440Z,11.67
2019-05-23T10:56:49.038Z,11.87
2019-05-23T11:06:53.580Z,11.83
2019-05-23T11:16:58.295Z,11.92
2019-05-23T11:27:03.593Z,11.96
2019-05-23T11:37:08.826Z,12.09
2019-05-23T11:47:13.822Z,12.21
2019-05-23T11:57:18.680Z,12.22
2019-05-23T12:07:25.093Z,12.34
2019-05-23T12:17:31.874Z,12.48
2019-05-23T12:27:36.428Z,12.42
2019-05-23T12:37:41.459Z,12.70
2019-05-23T12:47:47.670Z,12.89
2019-05-23T12:57:52.582Z,12.91
2019-05-23T13:07:57.345Z,12.90
2019-05-23T13:18:02.329Z,13.20
2019-05-23T13:28:07.193Z,13.40
2019-05-23T13:38:11.852Z,13.28
2019-05-23T13:48:16.731Z,13.38
2019-05-23T13:58:21.627Z,13.90
2019-05-23T14:08:26.460Z,14.81
2019-05-23T14:18:32.791Z,15.15
2019-05-23T14:28:37.821Z,14.83
2019-05-23T14:38:44.127Z,15.08
2019-05-23T14:49:05.259Z,14.84
2019-05-23T14:59:09.715Z,14.80
2019-05-23T15:09:14.496Z,14.70
2019-05-23T15:19:38.101Z,14.55
2019-05-23T15:29:29.056Z,14.56
2019-05-23T15:39:32.126Z,14.57
2019-05-23T15:49:38.535Z,14.65
2019-05-23T15:59:53.484Z,14.75
2019-05-23T16:10:00.014Z,14.95
2019-05-23T16:20:06.859Z,14.79
2019-05-23T16:30:11.925Z,14.73
2019-05-23T16:40:16.645Z,14.60
2019-05-23T16:50:21.462Z,14.50
2019-05-23T17:00:28.006Z,14.40
2019-05-23T17:10:46.322Z,14.37
2019-05-23T17:20:58.552Z,14.40
2019-05-23T17:31:07.651Z,14.32
2019-05-23T17:41:12.364Z,14.25
2019-05-23T17:51:17.257Z,14.20
2019-05-23T18:01:21.882Z,14.02
2019-05-23T18:11:27.044Z,13.87
2019-05-23T18:21:31.760Z,13.74
2019-05-23T18:31:38.267Z,13.62
2019-05-23T18:41:43.158Z,13.48
2019-05-23T18:51:50.889Z,13.25
2019-05-23T19:01:55.396Z,12.86
2019-05-23T19:12:00.192Z,12.42
2019-05-23T19:22:05.192Z,12.07
2019-05-23T19:32:11.074Z,11.67
2019-05-23T19:42:17.185Z,11.39
2019-05-23T19:52:21.896Z,11.25
2019-05-23T20:02:38.064Z,11.14
2019-05-23T20:12:44.371Z,11.02
2019-05-23T20:22:49.051Z,11.13
2019-05-23T20:32:53.686Z,11.21
2019-05-23T20:42:58.247Z,11.15
2019-05-23T20:53:03.123Z,10.97
2019-05-23T21:03:07.828Z,10.70
2019-05-23T21:13:12.459Z,10.65
2019-05-23T21:23:16.992Z,10.73
2019-05-23T21:33:21.559Z,10.73
2019-05-23T21:43:26.163Z,10.72
2019-05-23T21:53:30.756Z,10.54
2019-05-23T22:03:50.881Z,10.46
2019-05-23T22:13:55.447Z,10.41
2019-05-23T22:24:02.498Z,10.38
2019-05-23T22:34:17.304Z,10.27
2019-05-23T22:44:22.290Z,10.04
2019-05-23T22:54:28.896Z,9.71
2019-05-23T23:04:33.756Z,9.36
2019-05-23T23:14:38.373Z,9.10
2019-05-23T23:24:42.877Z,8.85
2019-05-23T23:34:47.782Z,8.73
2019-05-23T23:44:51.635Z,8.86
2019-05-23T23:55:14.445Z,8.89
